createdAt,value
2023-02-21T10:12:21.533Z,6.15
2023-02-21T10:14:58.914Z,6.38
2023-02-21T10:17:29.715Z,5.97
2023-02-21T10:20:01.110Z,5.55
2023-02-21T10:22:33.227Z,5.85
2023-02-21T10:25:02.805Z,6.15
2023-02-21T10:27:33.437Z,5.40
2023-02-21T10:30:05.450Z,6.32
2023-02-21T10:32:34.362Z,6.03
2023-02-21T10:35:02.621Z,5.75
2023-02-21T10:37:35.702Z,6.85
2023-02-21T10:40:09.081Z,6.32
2023-02-21T10:42:40.399Z,5.32
2023-02-21T10:45:11.238Z,5.72
2023-02-21T10:47:47.136Z,5.80
2023-02-21T10:50:15.407Z,5.97
2023-02-21T10:52:50.362Z,5.30
2023-02-21T10:55:32.313Z,5.65
2023-02-21T10:58:07.733Z,5.78
2023-02-21T11:00:38.384Z,6.20
2023-02-21T11:03:08.702Z,5.22
2023-02-21T11:05:37.414Z,5.95
2023-02-21T11:08:07.645Z,5.10
2023-02-21T11:10:36.876Z,5.70
2023-02-21T11:13:09.983Z,5.00
2023-02-21T11:15:42.738Z,5.03
2023-02-21T11:18:16.674Z,4.90
2023-02-21T11:20:45.679Z,4.50
2023-02-21T11:23:21.572Z,4.50
2023-02-21T11:25:50.592Z,4.50
2023-02-21T11:28:20.731Z,4.00
2023-02-21T11:30:51.598Z,4.53
2023-02-21T11:33:21.581Z,3.80
2023-02-21T11:35:50.903Z,3.75
2023-02-21T11:38:36.808Z,3.72
2023-02-21T11:41:05.956Z,3.05
2023-02-21T11:43:34.572Z,3.20
2023-02-21T11:46:06.544Z,3.47
2023-02-21T11:48:36.898Z,2.83
2023-02-21T11:51:07.445Z,2.88
2023-02-21T11:53:39.177Z,3.40
2023-02-21T11:56:13.092Z,3.28
2023-02-21T11:58:45.025Z,2.75
2023-02-21T12:01:19.669Z,2.90
2023-02-21T12:03:57.429Z,2.88
2023-02-21T12:06:30.311Z,2.65
2023-02-21T12:09:01.175Z,2.90
2023-02-21T12:11:44.626Z,2.92
2023-02-21T12:14:17.966Z,2.63
2023-02-21T12:16:56.964Z,2.60
2023-02-21T12:19:35.610Z,2.80
2023-02-21T12:22:05.528Z,2.45
2023-02-21T12:24:46.236Z,2.35
2023-02-21T12:27:17.578Z,2.58
2023-02-21T12:29:54.812Z,2.33
2023-02-21T12:32:38.060Z,2.38
2023-02-21T12:35:31.185Z,2.05
2023-02-21T12:38:04.431Z,2.00
2023-02-21T12:40:40.462Z,2.30
2023-02-21T12:43:22.913Z,2.10
2023-02-21T12:45:58.769Z,2.33
2023-02-21T12:48:34.338Z,2.00
2023-02-21T12:51:05.003Z,1.70
2023-02-21T12:53:36.190Z,1.83
2023-02-21T12:56:07.895Z,1.98
2023-02-21T12:58:37.489Z,2.10
2023-02-21T13:01:10.625Z,1.88
2023-02-21T13:03:45.858Z,2.10
2023-02-21T13:06:19.490Z,1.92
2023-02-21T13:08:51.924Z,1.77
2023-02-21T13:11:23.736Z,4.68
2023-02-21T13:13:51.947Z,1.90
2023-02-21T13:16:22.053Z,1.70
2023-02-21T13:18:59.596Z,1.63
2023-02-21T13:21:34.383Z,1.35
2023-02-21T13:24:05.420Z,1.13
2023-02-21T13:26:57.374Z,2.13
2023-02-21T13:29:27.169Z,4.55
2023-02-21T13:32:00.336Z,6.63
2023-02-21T13:34:31.371Z,2.67
2023-02-21T13:37:03.149Z,1.48
2023-02-21T13:39:36.414Z,1.65
2023-02-21T13:42:07.512Z,2.08
2023-02-21T13:44:37.543Z,8.75
2023-02-21T13:47:13.934Z,7.53
2023-02-21T13:49:47.670Z,2.72
2023-02-21T13:54:58.888Z,1.63
2023-02-21T13:57:33.960Z,4.90
2023-02-21T14:00:23.436Z,3.17
2023-02-21T14:02:56.866Z,2.38
2023-02-21T14:05:27.311Z,1.65
2023-02-21T14:08:00.273Z,1.17
2023-02-21T14:10:43.402Z,1.30
2023-02-21T14:13:25.553Z,1.23
2023-02-21T14:15:59.282Z,1.60
2023-02-21T14:20:58.016Z,1.20
2023-02-21T14:23:32.891Z,1.65
2023-02-21T14:26:05.271Z,1.60
2023-02-21T14:29:06.743Z,1.50
2023-02-21T14:31:58.269Z,1.30
2023-02-21T14:34:29.370Z,1.35
2023-02-21T14:37:01.100Z,1.60
2023-02-21T14:39:35.014Z,1.20
2023-02-21T14:42:08.762Z,1.33
2023-02-21T14:47:25.594Z,1.75
2023-02-21T14:50:00.795Z,1.60
2023-02-21T14:52:41.086Z,1.45
2023-02-21T14:55:40.529Z,1.70
2023-02-21T14:58:28.617Z,1.20
2023-02-21T15:01:02.496Z,1.58
2023-02-21T15:03:33.851Z,1.35
2023-02-21T15:06:04.946Z,1.50
2023-02-21T15:08:42.927Z,1.73
2023-02-21T15:11:28.302Z,1.70
2023-02-21T15:14:11.461Z,1.50
2023-02-21T15:16:40.726Z,1.70
2023-02-21T15:19:19.338Z,2.92
2023-02-21T15:21:47.670Z,2.38
2023-02-21T15:24:18.480Z,1.77
2023-02-21T15:26:46.808Z,4.05
2023-02-21T15:29:19.431Z,2.00
2023-02-21T15:31:50.812Z,1.92
2023-02-21T15:34:22.940Z,1.45
2023-02-21T15:36:56.920Z,1.60
2023-02-21T15:39:30.998Z,1.65
2023-02-21T15:42:00.106Z,1.85
2023-02-21T15:44:30.909Z,2.17
2023-02-21T15:47:00.384Z,2.05
2023-02-21T15:49:30.995Z,1.98
2023-02-21T15:51:59.278Z,1.90
2023-02-21T15:54:31.517Z,2.30
2023-02-21T15:57:03.713Z,2.33
2023-02-21T15:59:32.652Z,1.60
2023-02-21T16:02:18.119Z,1.50
2023-02-21T16:04:47.526Z,1.83
2023-02-21T16:07:18.153Z,1.63
2023-02-21T16:09:49.499Z,2.00
2023-02-21T16:12:24.458Z,1.70
2023-02-21T16:14:59.021Z,3.00
2023-02-21T16:17:30.774Z,2.63
2023-02-21T16:20:00.682Z,3.45
2023-02-21T16:22:32.022Z,3.03
2023-02-21T16:25:16.988Z,3.22
2023-02-21T16:30:14.636Z,2.38
2023-02-21T16:32:44.359Z,2.03
2023-02-21T16:35:20.633Z,1.60
2023-02-21T16:37:49.858Z,2.05
2023-02-21T16:40:23.274Z,3.70
2023-02-21T16:42:51.715Z,4.90
2023-02-21T16:45:20.570Z,5.07
2023-02-21T16:47:49.925Z,4.43
2023-02-21T16:50:20.268Z,4.53
2023-02-21T16:52:48.911Z,2.85
2023-02-21T16:55:20.035Z,4.15
2023-02-21T16:57:48.927Z,5.80
2023-02-21T17:00:21.892Z,5.20
2023-02-21T17:02:50.861Z,10.50
2023-02-21T17:05:21.133Z,7.50
2023-02-21T17:07:53.009Z,5.15
2023-02-21T17:10:22.966Z,4.53
2023-02-21T17:12:51.252Z,5.55
2023-02-21T17:15:24.046Z,5.22
2023-02-21T17:17:53.939Z,4.68
2023-02-21T17:20:23.196Z,3.88
2023-02-21T17:22:51.604Z,3.55
2023-02-21T17:25:20.638Z,3.05
2023-02-21T17:27:50.315Z,4.45
2023-02-21T17:30:20.175Z,3.47
2023-02-21T17:32:48.530Z,4.47
2023-02-21T17:35:17.113Z,4.50
2023-02-21T17:37:47.397Z,4.68
2023-02-21T17:40:16.615Z,4.80
2023-02-21T17:42:45.186Z,4.50
2023-02-21T17:45:14.906Z,4.65
2023-02-21T17:47:43.183Z,7.95
2023-02-21T17:50:11.847Z,7.72
2023-02-21T17:52:40.071Z,6.50
2023-02-21T17:55:08.895Z,6.93
2023-02-21T17:57:40.391Z,6.57
2023-02-21T18:00:11.074Z,5.15
2023-02-21T18:02:40.741Z,5.13
2023-02-21T18:05:09.556Z,3.58
2023-02-21T18:07:37.969Z,3.05
2023-02-21T18:10:06.704Z,3.03
2023-02-21T18:12:35.281Z,2.53
2023-02-21T18:15:04.131Z,2.92
2023-02-21T18:17:32.449Z,2.72
2023-02-21T18:20:02.228Z,3.10
2023-02-21T18:22:30.536Z,2.85
2023-02-21T18:24:58.878Z,4.63
2023-02-21T18:27:27.122Z,5.55
2023-02-21T18:29:56.159Z,4.10
2023-02-21T18:32:27.086Z,4.97
2023-02-21T18:34:56.180Z,5.95
2023-02-21T18:37:25.760Z,5.90
2023-02-21T18:39:54.009Z,5.53
2023-02-21T18:42:23.868Z,6.18
2023-02-21T18:44:52.578Z,5.93
2023-02-21T18:47:20.974Z,8.50
2023-02-21T18:49:49.756Z,8.40
2023-02-21T18:52:18.293Z,9.27
2023-02-21T18:54:50.443Z,8.23
2023-02-21T18:57:19.473Z,6.32
2023-02-21T18:59:48.059Z,7.75
2023-02-21T19:02:17.307Z,9.50
2023-02-21T19:04:45.680Z,9.68
2023-02-21T19:07:17.045Z,10.52
2023-02-21T19:10:15.356Z,11.00
2023-02-21T19:12:44.022Z,8.02
2023-02-21T19:15:12.426Z,7.63
2023-02-21T19:17:42.143Z,8.15
2023-02-21T19:20:10.831Z,5.72
2023-02-21T19:22:42.184Z,5.68
2023-02-21T19:25:12.001Z,7.85
2023-02-21T19:27:40.321Z,9.27
2023-02-21T19:30:09.171Z,9.93
2023-02-21T19:32:37.553Z,8.13
2023-02-21T19:35:14.550Z,9.95
2023-02-21T19:37:42.877Z,10.18
2023-02-21T19:40:13.127Z,9.77
2023-02-21T19:42:41.759Z,7.72
2023-02-21T19:45:10.610Z,8.00
2023-02-21T19:47:41.804Z,7.68
2023-02-21T19:50:12.097Z,7.20
2023-02-21T19:52:42.676Z,7.30
2023-02-21T19:55:11.133Z,8.68
2023-02-21T19:57:40.780Z,9.73
2023-02-21T20:00:15.546Z,8.85
2023-02-21T20:02:44.450Z,9.18
2023-02-21T20:05:14.041Z,11.00
2023-02-21T20:10:54.253Z,22.08
2023-02-21T20:13:24.468Z,15.63
2023-02-21T20:15:52.775Z,14.55
2023-02-21T20:18:21.566Z,14.65
2023-02-21T20:20:50.595Z,13.35
2023-02-21T20:23:18.908Z,14.05
2023-02-21T20:25:47.935Z,12.40
2023-02-21T20:28:17.183Z,12.05
2023-02-21T20:30:47.356Z,12.20
2023-02-21T20:33:16.250Z,13.27
2023-02-21T20:35:45.017Z,11.77
2023-02-21T20:38:15.923Z,12.02
2023-02-21T20:40:44.246Z,11.95
2023-02-21T20:43:14.437Z,11.15
2023-02-21T20:45:44.356Z,10.52
2023-02-21T20:48:14.459Z,10.80
2023-02-21T20:50:46.147Z,9.23
2023-02-21T20:53:18.757Z,9.50
2023-02-21T20:55:47.573Z,9.07
2023-02-21T20:58:18.845Z,9.25
2023-02-21T21:00:47.735Z,9.18
2023-02-21T21:03:18.081Z,7.40
2023-02-21T21:05:48.153Z,7.38
2023-02-21T21:08:21.602Z,6.95
2023-02-21T21:10:50.020Z,9.48
2023-02-21T21:13:20.876Z,8.40
2023-02-21T21:15:49.156Z,9.48
2023-02-21T21:18:21.900Z,10.50
2023-02-21T21:20:53.423Z,10.02
2023-02-21T21:23:21.722Z,9.50
2023-02-21T21:25:55.414Z,8.68
2023-02-21T21:28:33.268Z,8.15
2023-02-21T21:31:01.927Z,8.00
2023-02-21T21:33:39.191Z,7.85
2023-02-21T21:36:11.793Z,8.43
2023-02-21T21:38:43.184Z,8.15
2023-02-21T21:41:19.004Z,8.88
2023-02-21T21:43:48.382Z,8.20
2023-02-21T21:46:16.835Z,8.85
2023-02-21T21:48:46.513Z,9.57
2023-02-21T21:51:17.448Z,8.50
2023-02-21T21:53:47.114Z,8.85
2023-02-21T21:56:19.427Z,8.20
2023-02-21T21:58:52.654Z,8.80
2023-02-21T22:01:21.100Z,9.05
2023-02-21T22:03:59.850Z,8.45
2023-02-21T22:06:28.270Z,9.20
2023-02-21T22:08:59.643Z,8.57
2023-02-21T22:11:27.955Z,8.48
2023-02-21T22:13:58.351Z,8.63
2023-02-21T22:16:26.674Z,9.10
2023-02-21T22:18:58.612Z,9.23
2023-02-21T22:21:28.600Z,8.55
2023-02-21T22:23:57.289Z,9.50
2023-02-21T22:26:36.986Z,9.48
2023-02-21T22:29:06.008Z,8.75
2023-02-21T22:31:35.840Z,10.48
2023-02-21T22:34:05.796Z,11.40
2023-02-21T22:36:36.809Z,11.98
2023-02-21T22:39:09.403Z,11.02
2023-02-21T22:41:37.780Z,14.45
2023-02-21T22:44:06.752Z,11.10
2023-02-21T22:46:40.304Z,9.65
2023-02-21T22:49:10.417Z,9.27
2023-02-21T22:51:38.749Z,10.88
2023-02-21T22:54:07.208Z,10.38
2023-02-21T22:56:38.485Z,9.75
2023-02-21T22:59:12.601Z,8.88
2023-02-21T23:01:40.881Z,8.85
2023-02-21T23:04:25.459Z,8.63
2023-02-21T23:06:54.647Z,9.05
2023-02-21T23:09:24.440Z,8.98
2023-02-21T23:11:53.874Z,8.45
2023-02-21T23:14:24.372Z,8.77
2023-02-21T23:16:54.230Z,8.65
2023-02-21T23:19:24.037Z,8.45
2023-02-21T23:21:53.100Z,8.70
2023-02-21T23:24:22.298Z,9.20
2023-02-21T23:26:51.510Z,9.15
2023-02-21T23:29:21.063Z,8.40
2023-02-21T23:31:49.888Z,9.02
2023-02-21T23:34:19.772Z,8.43
2023-02-21T23:36:49.460Z,9.05
2023-02-21T23:39:18.184Z,9.18
2023-02-21T23:41:48.925Z,9.52
2023-02-21T23:44:17.599Z,10.38
2023-02-21T23:46:46.700Z,10.02
2023-02-21T23:49:16.510Z,9.02
2023-02-21T23:51:46.737Z,9.77
2023-02-21T23:54:18.105Z,8.85
2023-02-21T23:56:48.530Z,8.88
2023-02-21T23:59:17.019Z,8.10
